sensor_id;sensor_type;location;lat;lon;timestamp;pressure;altitude;pressure_sealevel;temperature;humidity
53619;BME280;39505;53.040;18.488;2023-03-15T00:00:06;99893.94;;;4.64;100.00
53619;BME280;39505;53.040;18.488;2023-03-15T00:00:29;99891.63;;;4.60;100.00
53619;BME280;39505;53.040;18.488;2023-03-15T00:01:02;99894.63;;;4.55;100.00
53619;BME280;39505;53.040;18.488;2023-03-15T00:01:18;99891.63;;;4.60;100.00
53619;BME280;39505;53.040;18.488;2023-03-15T00:01:32;99892.75;;;4.68;100.00
53619;BME280;39505;53.040;18.488;2023-03-15T00:01:44;99897.06;;;4.69;100.00
53619;BME280;39505;53.040;18.488;2023-03-15T00:01:58;99895.50;;;4.67;100.00
53619;BME280;39505;53.040;18.488;2023-03-15T00:02:11;99896.59;;;4.64;100.00
53619;BME280;39505;53.040;18.488;2023-03-15T00:02:23;99894.16;;;4.61;100.00
53619;BME280;39505;53.040;18.488;2023-03-15T00:02:37;99895.22;;;4.59;100.00
53619;BME280;39505;53.040;18.488;2023-03-15T00:02:50;99899.69;;;4.58;100.00
53619;BME280;39505;53.040;18.488;2023-03-15T00:03:03;99885.69;;;4.56;100.00
53619;BME280;39505;53.040;18.488;2023-03-15T00:03:16;99899.94;;;4.55;100.00
53619;BME280;39505;53.040;18.488;2023-03-15T00:03:29;99894.63;;;4.55;100.00
53619;BME280;39505;53.040;18.488;2023-03-15T00:03:42;99894.63;;;4.55;100.00
53619;BME280;39505;53.040;18.488;2023-03-15T00:03:56;99898.22;;;4.54;100.00
53619;BME280;39505;53.040;18.488;2023-03-15T00:04:09;99890.38;;;4.53;100.00
53619;BME280;39505;53.040;18.488;2023-03-15T00:04:22;99893.16;;;4.51;100.00
53619;BME280;39505;53.040;18.488;2023-03-15T00:04:37;99897.59;;;4.50;100.00
53619;BME280;39505;53.040;18.488;2023-03-15T00:04:50;99899.56;;;4.48;100.00
53619;BME280;39505;53.040;18.488;2023-03-15T00:05:03;99898.81;;;4.46;100.00
53619;BME280;39505;53.040;18.488;2023-03-15T00:05:16;99897.94;;;4.46;100.00
53619;BME280;39505;53.040;18.488;2023-03-15T00:05:30;99895.44;;;4.44;100.00
53619;BME280;39505;53.040;18.488;2023-03-15T00:05:44;99900.84;;;4.43;100.00
53619;BME280;39505;53.040;18.488;2023-03-15T00:05:59;99891.19;;;4.42;100.00
53619;BME280;39505;53.040;18.488;2023-03-15T00:06:13;99893.97;;;4.40;100.00
53619;BME280;39505;53.040;18.488;2023-03-15T00:06:25;99896.63;;;4.40;100.00
53619;BME280;39505;53.040;18.488;2023-03-15T00:06:38;99900.13;;;4.41;100.00
53619;BME280;39505;53.040;18.488;2023-03-15T00:06:50;99896.72;;;4.39;100.00
53619;BME280;39505;53.040;18.488;2023-03-15T00:07:04;99896.72;;;4.39;100.00
53619;BME280;39505;53.040;18.488;2023-03-15T00:07:17;99895.03;;;4.38;100.00
53619;BME280;39505;53.040;18.488;2023-03-15T00:07:30;99892.41;;;4.38;100.00
53619;BME280;39505;53.040;18.488;2023-03-15T00:07:42;99899.13;;;4.42;100.00
53619;BME280;39505;53.040;18.488;2023-03-15T00:07:55;99893.63;;;4.45;100.00
53619;BME280;39505;53.040;18.488;2023-03-15T00:08:07;99901.59;;;4.45;100.00
53619;BME280;39505;53.040;18.488;2023-03-15T00:08:20;99895.44;;;4.44;100.00
53619;BME280;39505;53.040;18.488;2023-03-15T00:08:33;99908.69;;;4.44;100.00
53619;BME280;39505;53.040;18.488;2023-03-15T00:08:46;99900.00;;;4.42;100.00
53619;BME280;39505;53.040;18.488;2023-03-15T00:08:59;99898.81;;;4.46;100.00
53619;BME280;39505;53.040;18.488;2023-03-15T00:09:13;99898.13;;;4.56;100.00
53619;BME280;39505;53.040;18.488;2023-03-15T00:09:26;99907.94;;;4.66;100.00
53619;BME280;39505;53.040;18.488;2023-03-15T00:09:39;99904.94;;;4.71;100.00
53619;BME280;39505;53.040;18.488;2023-03-15T00:09:52;99911.34;;;4.68;100.00
53619;BME280;39505;53.040;18.488;2023-03-15T00:10:05;99910.59;;;4.66;100.00
53619;BME280;39505;53.040;18.488;2023-03-15T00:10:19;99908.16;;;4.63;100.00
53619;BME280;39505;53.040;18.488;2023-03-15T00:10:31;99911.88;;;4.61;100.00
53619;BME280;39505;53.040;18.488;2023-03-15T00:10:46;99917.31;;;4.59;100.00
53619;BME280;39505;53.040;18.488;2023-03-15T00:11:00;99914.78;;;4.58;100.00
53619;BME280;39505;53.040;18.488;2023-03-15T00:11:13;99922.84;;;4.56;100.00
53619;BME280;39505;53.040;18.488;2023-03-15T00:11:26;99917.44;;;4.58;100.00
53619;BME280;39505;53.040;18.488;2023-03-15T00:11:42;99920.25;;;4.67;100.00
53619;BME280;39505;53.040;18.488;2023-03-15T00:11:54;99920.97;;;4.69;100.00
53619;BME280;39505;53.040;18.488;2023-03-15T00:12:07;99927.66;;;4.75;100.00
53619;BME280;39505;53.040;18.488;2023-03-15T00:12:20;99930.50;;;4.72;100.00
53619;BME280;39505;53.040;18.488;2023-03-15T00:12:34;99928.09;;;4.69;100.00
53619;BME280;39505;53.040;18.488;2023-03-15T00:12:46;99928.22;;;4.67;100.00
53619;BME280;39505;53.040;18.488;2023-03-15T00:12:59;99921.94;;;4.68;100.00
53619;BME280;39505;53.040;18.488;2023-03-15T00:13:14;99926.56;;;4.78;100.00
53619;BME280;39505;53.040;18.488;2023-03-15T00:13:27;99933.78;;;4.76;100.00
53619;BME280;39505;53.040;18.488;2023-03-15T00:13:40;99924.63;;;4.80;100.00
53619;BME280;39505;53.040;18.488;2023-03-15T00:13:53;99931.03;;;4.77;100.00
53619;BME280;39505;53.040;18.488;2023-03-15T00:14:06;99928.47;;;4.76;100.00
53619;BME280;39505;53.040;18.488;2023-03-15T00:14:18;99937.28;;;4.76;100.00
53619;BME280;39505;53.040;18.488;2023-03-15T00:14:32;99935.25;;;4.80;100.00
53619;BME280;39505;53.040;18.488;2023-03-15T00:14:45;99933.69;;;4.77;100.00
53619;BME280;39505;53.040;18.488;2023-03-15T00:14:57;99948.75;;;4.77;100.00
53619;BME280;39505;53.040;18.488;2023-03-15T00:15:12;99943.22;;;4.80;100.00
53619;BME280;39505;53.040;18.488;2023-03-15T00:15:25;99941.78;;;4.87;100.00
53619;BME280;39505;53.040;18.488;2023-03-15T00:15:44;99939.13;;;4.87;100.00
53619;BME280;39505;53.040;18.488;2023-03-15T00:15:58;99936.38;;;4.88;100.00
53619;BME280;39505;53.040;18.488;2023-03-15T00:16:11;99939.88;;;4.89;100.00
53619;BME280;39505;53.040;18.488;2023-03-15T00:16:29;99937.22;;;4.89;100.00
53619;BME280;39505;53.040;18.488;2023-03-15T00:16:44;99944.84;;;4.94;100.00
53619;BME280;39505;53.040;18.488;2023-03-15T00:16:56;99938.19;;;4.88;100.00
53619;BME280;39505;53.040;18.488;2023-03-15T00:17:09;99940.94;;;4.86;100.00
53619;BME280;39505;53.040;18.488;2023-03-15T00:17:23;99945.19;;;4.89;100.00
53619;BME280;39505;53.040;18.488;2023-03-15T00:17:35;99940.13;;;4.86;100.00
53619;BME280;39505;53.040;18.488;2023-03-15T00:17:49;99942.78;;;4.86;100.00
53619;BME280;39505;53.040;18.488;2023-03-15T00:18:02;99946.88;;;4.90;100.00
53619;BME280;39505;53.040;18.488;2023-03-15T00:18:16;99939.88;;;4.89;100.00
53619;BME280;39505;53.040;18.488;2023-03-15T00:18:29;99942.78;;;4.86;100.00
53619;BME280;39505;53.040;18.488;2023-03-15T00:18:42;99948.09;;;4.86;100.00
53619;BME280;39505;53.040;18.488;2023-03-15T00:18:55;99941.78;;;4.87;100.00
53619;BME280;39505;53.040;18.488;2023-03-15T00:19:09;99943.84;;;4.83;100.00
53619;BME280;39505;53.040;18.488;2023-03-15T00:19:22;99948.53;;;4.80;100.00
53619;BME280;39505;53.040;18.488;2023-03-15T00:19:34;99943.44;;;4.77;100.00
53619;BME280;39505;53.040;18.488;2023-03-15T00:19:47;99944.81;;;4.82;100.00
53619;BME280;39505;53.040;18.488;2023-03-15T00:20:00;99949.88;;;4.85;100.00
53619;BME280;39505;53.040;18.488;2023-03-15T00:20:13;99951.69;;;4.85;100.00
53619;BME280;39505;53.040;18.488;2023-03-15T00:20:26;99951.09;;;4.81;100.00
53619;BME280;39505;53.040;18.488;2023-03-15T00:20:40;99948.28;;;4.83;100.00
53619;BME280;39505;53.040;18.488;2023-03-15T00:20:52;99953.50;;;4.84;100.00
53619;BME280;39505;53.040;18.488;2023-03-15T00:21:05;99947.34;;;4.84;100.00
53619;BME280;39505;53.040;18.488;2023-03-15T00:21:18;99951.19;;;4.80;100.00
53619;BME280;39505;53.040;18.488;2023-03-15T00:21:31;99957.97;;;4.84;100.00
53619;BME280;39505;53.040;18.488;2023-03-15T00:21:44;99946.63;;;4.82;100.00
53619;BME280;39505;53.040;18.488;2023-03-15T00:21:56;99953.97;;;4.78;100.00
53619;BME280;39505;53.040;18.488;2023-03-15T00:22:10;99957.78;;;4.74;100.00
53619;BME280;39505;53.040;18.488;2023-03-15T00:22:23;99953.56;;;4.71;100.00
53619;BME280;39505;53.040;18.488;2023-03-15T00:22:35;99953.47;;;4.73;100.00
53619;BME280;39505;53.040;18.488;2023-03-15T00:22:48;99954.66;;;4.69;100.00
53619;BME280;39505;53.040;18.488;2023-03-15T00:23:00;99953.06;;;4.66;100.00
53619;BME280;39505;53.040;18.488;2023-03-15T00:23:14;99947.88;;;4.65;100.00
53619;BME280;39505;53.040;18.488;2023-03-15T00:23:28;99957.41;;;4.67;100.00
53619;BME280;39505;53.040;18.488;2023-03-15T00:23:40;99951.88;;;4.70;100.00
53619;BME280;39505;53.040;18.488;2023-03-15T00:23:53;99958.25;;;4.68;100.00
53619;BME280;39505;53.040;18.488;2023-03-15T00:24:06;99960.19;;;4.66;100.00
53619;BME280;39505;53.040;18.488;2023-03-15T00:24:18;99965.50;;;4.66;100.00
53619;BME280;39505;53.040;18.488;2023-03-15T00:24:31;99962.50;;;4.70;100.00
53619;BME280;39505;53.040;18.488;2023-03-15T00:24:44;99956.47;;;4.68;100.00
53619;BME280;39505;53.040;18.488;2023-03-15T00:24:57;99961.97;;;4.65;100.00
53619;BME280;39505;53.040;18.488;2023-03-15T00:25:10;99965.72;;;4.63;100.00
53619;BME280;39505;53.040;18.488;2023-03-15T00:25:23;99965.09;;;4.59;100.00
53619;BME280;39505;53.040;18.488;2023-03-15T00:25:36;99962.56;;;4.58;100.00
53619;BME280;39505;53.040;18.488;2023-03-15T00:25:51;99970.63;;;4.56;100.00
53619;BME280;39505;53.040;18.488;2023-03-15T00:26:04;99973.53;;;4.53;100.00
53619;BME280;39505;53.040;18.488;2023-03-15T00:26:16;99971.72;;;4.54;100.00
53619;BME280;39505;53.040;18.488;2023-03-15T00:26:30;99964.25;;;4.59;100.00
53619;BME280;39505;53.040;18.488;2023-03-15T00:26:43;99972.94;;;4.61;100.00
53619;BME280;39505;53.040;18.488;2023-03-15T00:26:55;99973.78;;;4.61;100.00
53619;BME280;39505;53.040;18.488;2023-03-15T00:27:08;99974.88;;;4.59;100.00
53619;BME280;39505;53.040;18.488;2023-03-15T00:27:21;99974.13;;;4.57;100.00
53619;BME280;39505;53.040;18.488;2023-03-15T00:27:33;99974.28;;;4.55;100.00
53619;BME280;39505;53.040;18.488;2023-03-15T00:27:46;99976.06;;;4.55;100.00
53619;BME280;39505;53.040;18.488;2023-03-15T00:28:00;99977.03;;;4.54;100.00
53619;BME280;39505;53.040;18.488;2023-03-15T00:28:13;99977.97;;;4.53;100.00
53619;BME280;39505;53.040;18.488;2023-03-15T00:28:26;99976.41;;;4.50;100.00
53619;BME280;39505;53.040;18.488;2023-03-15T00:28:39;99972.56;;;4.54;100.00
53619;BME280;39505;53.040;18.488;2023-03-15T00:28:51;99984.09;;;4.66;100.00
53619;BME280;39505;53.040;18.488;2023-03-15T00:29:04;99975.25;;;4.65;100.00
53619;BME280;39505;53.040;18.488;2023-03-15T00:29:17;99972.41;;;4.68;100.00
53619;BME280;39505;53.040;18.488;2023-03-15T00:29:30;99976.97;;;4.66;100.00
53619;BME280;39505;53.040;18.488;2023-03-15T00:29:44;99982.03;;;4.69;100.00
53619;BME280;39505;53.040;18.488;2023-03-15T00:29:56;99984.94;;;4.66;100.00
53619;BME280;39505;53.040;18.488;2023-03-15T00:30:10;99989.91;;;4.71;100.00
53619;BME280;39505;53.040;18.488;2023-03-15T00:30:22;99986.50;;;4.69;100.00
53619;BME280;39505;53.040;18.488;2023-03-15T00:30:35;99982.28;;;4.66;100.00
53619;BME280;39505;53.040;18.488;2023-03-15T00:30:48;99979.84;;;4.63;100.00
53619;BME280;39505;53.040;18.488;2023-03-15T00:31:05;99988.16;;;4.59;100.00
53619;BME280;39505;53.040;18.488;2023-03-15T00:31:23;99980.19;;;4.59;100.00
53619;BME280;39505;53.040;18.488;2023-03-15T00:31:36;99983.47;;;4.62;100.00
53619;BME280;39505;53.040;18.488;2023-03-15T00:31:48;99984.19;;;4.64;100.00
53619;BME280;39505;53.040;18.488;2023-03-15T00:32:03;99986.28;;;4.72;100.00
53619;BME280;39505;53.040;18.488;2023-03-15T00:32:15;99983.84;;;4.69;100.00
53619;BME280;39505;53.040;18.488;2023-03-15T00:32:28;99986.63;;;4.67;100.00
53619;BME280;39505;53.040;18.488;2023-03-15T00:32:43;99994.59;;;4.67;100.00
53619;BME280;39505;53.040;18.488;2023-03-15T00:32:55;99986.16;;;4.74;100.00
53619;BME280;39505;53.040;18.488;2023-03-15T00:33:09;99995.59;;;4.78;100.00
53619;BME280;39505;53.040;18.488;2023-03-15T00:33:25;99992.84;;;4.79;100.00
53619;BME280;39505;53.040;18.488;2023-03-15T00:33:37;99997.06;;;4.82;100.00
53619;BME280;39505;53.040;18.488;2023-03-15T00:33:51;99997.91;;;4.82;100.00
53619;BME280;39505;53.040;18.488;2023-03-15T00:34:05;99996.97;;;4.83;100.00
53619;BME280;39505;53.040;18.488;2023-03-15T00:34:18;99991.03;;;4.80;100.00
53619;BME280;39505;53.040;18.488;2023-03-15T00:34:35;99989.66;;;4.74;100.00
53619;BME280;39505;53.040;18.488;2023-03-15T00:34:48;99994.38;;;4.70;100.00
53619;BME280;39505;53.040;18.488;2023-03-15T00:35:00;99993.75;;;4.67;100.00
53619;BME280;39505;53.040;18.488;2023-03-15T00:35:13;99998.22;;;4.66;100.00
53619;BME280;39505;53.040;18.488;2023-03-15T00:35:29;99996.28;;;4.68;100.00
53619;BME280;39505;53.040;18.488;2023-03-15T00:35:43;99996.16;;;4.70;100.00
53619;BME280;39505;53.040;18.488;2023-03-15T00:35:57;99998.72;;;4.71;100.00
53619;BME280;39505;53.040;18.488;2023-03-15T00:36:10;99993.50;;;4.70;100.00
53619;BME280;39505;53.040;18.488;2023-03-15T00:36:24;100003.53;;;4.66;100.00
53619;BME280;39505;53.040;18.488;2023-03-15T00:36:36;100000.34;;;4.61;100.00
53619;BME280;39505;53.040;18.488;2023-03-15T00:36:49;99998.41;;;4.63;100.00
53619;BME280;39505;53.040;18.488;2023-03-15T00:37:04;99996.28;;;4.68;100.00
53619;BME280;39505;53.040;18.488;2023-03-15T00:37:17;99996.41;;;4.67;100.00
53619;BME280;39505;53.040;18.488;2023-03-15T00:37:31;99998.41;;;4.63;100.00
53619;BME280;39505;53.040;18.488;2023-03-15T00:37:43;100002.69;;;4.66;100.00
53619;BME280;39505;53.040;18.488;2023-03-15T00:37:56;99999.78;;;4.69;100.00
53619;BME280;39505;53.040;18.488;2023-03-15T00:38:09;99998.22;;;4.66;100.00
53619;BME280;39505;53.040;18.488;2023-03-15T00:38:22;100001.06;;;4.63;100.00
53619;BME280;39505;53.040;18.488;2023-03-15T00:38:36;100003.72;;;4.63;100.00
53619;BME280;39505;53.040;18.488;2023-03-15T00:38:51;99994.81;;;4.64;100.00
53619;BME280;39505;53.040;18.488;2023-03-15T00:39:04;99996.00;;;4.60;100.00
53619;BME280;39505;53.040;18.488;2023-03-15T00:39:17;99994.44;;;4.58;100.00
53619;BME280;39505;53.040;18.488;2023-03-15T00:39:30;100000.81;;;4.55;100.00
53619;BME280;39505;53.040;18.488;2023-03-15T00:39:44;99999.34;;;4.51;100.00
53619;BME280;39505;53.040;18.488;2023-03-15T00:39:56;100002.94;;;4.50;100.00
53619;BME280;39505;53.040;18.488;2023-03-15T00:40:10;99991.25;;;4.53;100.00
53619;BME280;39505;53.040;18.488;2023-03-15T00:40:24;99997.09;;;4.58;100.00
53619;BME280;39505;53.040;18.488;2023-03-15T00:40:37;100002.03;;;4.62;100.00
53619;BME280;39505;53.040;18.488;2023-03-15T00:40:51;99992.38;;;4.61;100.00
53619;BME280;39505;53.040;18.488;2023-03-15T00:41:05;100002.03;;;4.62;100.00
53619;BME280;39505;53.040;18.488;2023-03-15T00:41:19;99996.09;;;4.59;100.00
53619;BME280;39505;53.040;18.488;2023-03-15T00:41:33;100005.16;;;4.56;100.00
53619;BME280;39505;53.040;18.488;2023-03-15T00:41:45;100004.66;;;4.51;100.00
53619;BME280;39505;53.040;18.488;2023-03-15T00:41:58;100005.72;;;4.48;100.00
53619;BME280;39505;53.040;18.488;2023-03-15T00:42:11;99997.97;;;4.45;100.00
53619;BME280;39505;53.040;18.488;2023-03-15T00:42:27;100008.25;;;4.50;100.00
53619;BME280;39505;53.040;18.488;2023-03-15T00:42:40;100011.44;;;4.55;100.00
53619;BME280;39505;53.040;18.488;2023-03-15T00:42:52;100008.88;;;4.54;100.00
53619;BME280;39505;53.040;18.488;2023-03-15T00:43:05;100007.50;;;4.48;100.00
53619;BME280;39505;53.040;18.488;2023-03-15T00:43:18;100007.84;;;4.43;100.00
53619;BME280;39505;53.040;18.488;2023-03-15T00:43:31;100013.25;;;4.42;100.00
53619;BME280;39505;53.040;18.488;2023-03-15T00:43:45;100011.81;;;4.38;100.00
53619;BME280;39505;53.040;18.488;2023-03-15T00:43:58;100010.84;;;4.39;100.00
53619;BME280;39505;53.040;18.488;2023-03-15T00:44:11;100010.84;;;4.39;100.00
53619;BME280;39505;53.040;18.488;2023-03-15T00:44:24;100013.59;;;4.37;100.00
53619;BME280;39505;53.040;18.488;2023-03-15T00:44:39;100013.81;;;4.34;100.00
53619;BME280;39505;53.040;18.488;2023-03-15T00:44:52;100011.41;;;4.31;100.00
53619;BME280;39505;53.040;18.488;2023-03-15T00:45:06;100019.47;;;4.29;100.00
53619;BME280;39505;53.040;18.488;2023-03-15T00:45:20;100013.44;;;4.27;100.00
53619;BME280;39505;53.040;18.488;2023-03-15T00:45:33;100009.19;;;4.25;100.00
53619;BME280;39505;53.040;18.488;2023-03-15T00:45:45;100017.25;;;4.23;100.00
53619;BME280;39505;53.040;18.488;2023-03-15T00:45:58;100017.47;;;4.20;100.00
53619;BME280;39505;53.040;18.488;2023-03-15T00:46:12;100021.38;;;4.27;100.00
53619;BME280;39505;53.040;18.488;2023-03-15T00:46:25;100018.84;;;4.26;100.00
53619;BME280;39505;53.040;18.488;2023-03-15T00:46:38;100017.66;;;4.30;100.00
53619;BME280;39505;53.040;18.488;2023-03-15T00:46:51;100021.16;;;4.30;100.00
53619;BME280;39505;53.040;18.488;2023-03-15T00:47:03;100018.28;;;4.34;100.00
53619;BME280;39505;53.040;18.488;2023-03-15T00:47:16;100014.06;;;4.31;100.00
53619;BME280;39505;53.040;18.488;2023-03-15T00:47:29;100009.94;;;4.27;100.00
53619;BME280;39505;53.040;18.488;2023-03-15T00:47:43;100019.81;;;4.25;100.00
53619;BME280;39505;53.040;18.488;2023-03-15T00:47:56;100012.91;;;4.22;100.00
53619;BME280;39505;53.040;18.488;2023-03-15T00:48:09;100019.16;;;4.21;100.00
53619;BME280;39505;53.040;18.488;2023-03-15T00:48:21;100013.97;;;4.20;100.00
53619;BME280;39505;53.040;18.488;2023-03-15T00:48:34;100018.53;;;4.18;100.00
53619;BME280;39505;53.040;18.488;2023-03-15T00:48:47;100021.31;;;4.16;100.00
53619;BME280;39505;53.040;18.488;2023-03-15T00:49:02;100017.69;;;4.17;100.00
53619;BME280;39505;53.040;18.488;2023-03-15T00:49:14;100012.63;;;4.14;100.00
53619;BME280;39505;53.040;18.488;2023-03-15T00:49:27;100011.88;;;4.12;100.00
53619;BME280;39505;53.040;18.488;2023-03-15T00:49:40;100019.00;;;4.12;100.00
53619;BME280;39505;53.040;18.488;2023-03-15T00:49:53;100013.78;;;4.10;100.00
53619;BME280;39505;53.040;18.488;2023-03-15T00:50:05;100010.69;;;4.16;100.00
53619;BME280;39505;53.040;18.488;2023-03-15T00:50:19;100016.63;;;4.20;100.00
53619;BME280;39505;53.040;18.488;2023-03-15T00:50:33;100011.44;;;4.18;100.00
53619;BME280;39505;53.040;18.488;2023-03-15T00:50:45;100005.91;;;4.21;100.00
53619;BME280;39505;53.040;18.488;2023-03-15T00:51:05;100006.31;;;4.28;100.00
53619;BME280;39505;53.040;18.488;2023-03-15T00:51:20;100004.28;;;4.32;100.00
53619;BME280;39505;53.040;18.488;2023-03-15T00:51:33;100005.97;;;4.33;100.00
53619;BME280;39505;53.040;18.488;2023-03-15T00:51:48;100004.06;;;4.35;100.00
53619;BME280;39505;53.040;18.488;2023-03-15T00:52:02;99997.91;;;4.34;100.00
53619;BME280;39505;53.040;18.488;2023-03-15T00:52:15;100001.19;;;4.38;100.00
53619;BME280;39505;53.040;18.488;2023-03-15T00:52:33;100006.38;;;4.39;100.00
53619;BME280;39505;53.040;18.488;2023-03-15T00:52:47;100001.41;;;4.35;100.00
53619;BME280;39505;53.040;18.488;2023-03-15T00:53:00;99999.59;;;4.35;100.00
53619;BME280;39505;53.040;18.488;2023-03-15T00:53:12;99994.50;;;4.32;100.00
53619;BME280;39505;53.040;18.488;2023-03-15T00:53:26;99999.38;;;4.38;100.00
53619;BME280;39505;53.040;18.488;2023-03-15T00:53:40;100003.22;;;4.34;100.00
53619;BME280;39505;53.040;18.488;2023-03-15T00:53:53;100010.34;;;4.34;100.00
53619;BME280;39505;53.040;18.488;2023-03-15T00:54:05;100000.91;;;4.29;100.00
53619;BME280;39505;53.040;18.488;2023-03-15T00:54:18;100005.88;;;4.34;100.00
53619;BME280;39505;53.040;18.488;2023-03-15T00:54:31;100010.00;;;4.38;100.00
53619;BME280;39505;53.040;18.488;2023-03-15T00:54:50;100000.31;;;4.37;100.00
53619;BME280;39505;53.040;18.488;2023-03-15T00:55:05;100005.03;;;4.34;100.00
53619;BME280;39505;53.040;18.488;2023-03-15T00:55:19;100002.56;;;4.30;100.00
53619;BME280;39505;53.040;18.488;2023-03-15T00:55:33;100014.91;;;4.32;100.00
53619;BME280;39505;53.040;18.488;2023-03-15T00:55:46;100005.97;;;4.33;100.00
53619;BME280;39505;53.040;18.488;2023-03-15T00:56:04;100010.53;;;4.30;100.00
53619;BME280;39505;53.040;18.488;2023-03-15T00:56:19;100007.16;;;4.28;100.00
53619;BME280;39505;53.040;18.488;2023-03-15T00:56:32;100012.69;;;4.25;100.00
53619;BME280;39505;53.040;18.488;2023-03-15T00:56:46;100009.19;;;4.25;100.00
53619;BME280;39505;53.040;18.488;2023-03-15T00:56:59;100013.53;;;4.26;100.00
53619;BME280;39505;53.040;18.488;2023-03-15T00:57:11;100018.94;;;4.24;100.00
53619;BME280;39505;53.040;18.488;2023-03-15T00:57:24;100011.72;;;4.26;100.00
53619;BME280;39505;53.040;18.488;2023-03-15T00:57:36;100017.16;;;4.25;100.00
53619;BME280;39505;53.040;18.488;2023-03-15T00:57:49;100019.16;;;4.21;100.00
53619;BME280;39505;53.040;18.488;2023-03-15T00:58:02;100021.47;;;4.26;100.00
53619;BME280;39505;53.040;18.488;2023-03-15T00:58:15;100017.66;;;4.30;100.00
53619;BME280;39505;53.040;18.488;2023-03-15T00:58:29;100020.94;;;4.34;100.00
53619;BME280;39505;53.040;18.488;2023-03-15T00:58:41;100019.47;;;4.29;100.00
53619;BME280;39505;53.040;18.488;2023-03-15T00:58:54;100026.69;;;4.27;100.00
53619;BME280;39505;53.040;18.488;2023-03-15T00:59:07;100030.41;;;4.25;100.00
53619;BME280;39505;53.040;18.488;2023-03-15T00:59:19;100024.47;;;4.21;100.00
53619;BME280;39505;53.040;18.488;2023-03-15T00:59:33;100025.22;;;4.23;100.00
53619;BME280;39505;53.040;18.488;2023-03-15T00:59:46;100034.66;;;4.27;100.00
53619;BME280;39505;53.040;18.488;2023-03-15T01:00:00;100031.03;;;4.28;100.00
53619;BME280;39505;53.040;18.488;2023-03-15T01:00:19;100033.91;;;4.25;100.00
53619;BME280;39505;53.040;18.488;2023-03-15T01:00:35;100029.78;;;4.21;100.00
53619;BME280;39505;53.040;18.488;2023-03-15T01:00:49;100042.31;;;4.19;100.00
53619;BME280;39505;53.040;18.488;2023-03-15T01:01:06;100041.56;;;4.17;100.00
53619;BME280;39505;53.040;18.488;2023-03-15T01:01:22;100044.44;;;4.14;100.00
53619;BME280;39505;53.040;18.488;2023-03-15T01:01:36;100040.22;;;4.12;100.00
53619;BME280;39505;53.040;18.488;2023-03-15T01:01:49;100043.81;;;4.11;100.00
53619;BME280;39505;53.040;18.488;2023-03-15T01:02:03;100042.97;;;4.10;100.00
53619;BME280;39505;53.040;18.488;2023-03-15T01:02:16;100044.88;;;4.08;100.00
53619;BME280;39505;53.040;18.488;2023-03-15T01:02:29;100039.47;;;4.09;100.00
53619;BME280;39505;53.040;18.488;2023-03-15T01:02:42;100041.25;;;4.09;100.00
53619;BME280;39505;53.040;18.488;2023-03-15T01:02:55;100047.53;;;4.08;100.00
53619;BME280;39505;53.040;18.488;2023-03-15T01:03:09;100044.22;;;4.04;100.00
53619;BME280;39505;53.040;18.488;2023-03-15T01:03:22;100047.00;;;4.03;100.00
53619;BME280;39505;53.040;18.488;2023-03-15T01:03:34;100041.72;;;4.03;100.00
53619;BME280;39505;53.040;18.488;2023-03-15T01:03:48;100039.25;;;4.00;100.00
53619;BME280;39505;53.040;18.488;2023-03-15T01:04:01;100034.91;;;3.99;100.00
53619;BME280;39505;53.040;18.488;2023-03-15T01:04:13;100038.50;;;3.98;100.00
53619;BME280;39505;53.040;18.488;2023-03-15T01:04:26;100032.38;;;3.97;100.00
53619;BME280;39505;53.040;18.488;2023-03-15T01:04:39;100029.72;;;3.97;100.00
53619;BME280;39505;53.040;18.488;2023-03-15T01:04:52;100038.50;;;3.98;100.00
53619;BME280;39505;53.040;18.488;2023-03-15T01:05:06;100035.84;;;3.98;100.00
53619;BME280;39505;53.040;18.488;2023-03-15T01:05:20;100034.28;;;3.95;100.00
53619;BME280;39505;53.040;18.488;2023-03-15T01:05:33;100032.59;;;3.94;100.00
53619;BME280;39505;53.040;18.488;2023-03-15T01:05:47;100031.72;;;3.94;100.00
53619;BME280;39505;53.040;18.488;2023-03-15T01:06:04;100030.88;;;3.93;100.00
53619;BME280;39505;53.040;18.488;2023-03-15T01:06:19;100037.03;;;3.94;100.00
53619;BME280;39505;53.040;18.488;2023-03-15T01:06:32;100036.84;;;3.97;100.00
53619;BME280;39505;53.040;18.488;2023-03-15T01:06:45;100041.28;;;3.96;100.00
53619;BME280;39505;53.040;18.488;2023-03-15T01:06:57;100036.59;;;4.00;100.00
53619;BME280;39505;53.040;18.488;2023-03-15T01:07:10;100036.59;;;4.00;100.00
53619;BME280;39505;53.040;18.488;2023-03-15T01:07:23;100040.97;;;4.01;100.00
53619;BME280;39505;53.040;18.488;2023-03-15T01:07:36;100040.00;;;4.02;100.00
53619;BME280;39505;53.040;18.488;2023-03-15T01:07:50;100046.28;;;4.01;100.00
53619;BME280;39505;53.040;18.488;2023-03-15T01:08:04;100040.09;;;4.00;100.00
53619;BME280;39505;53.040;18.488;2023-03-15T01:08:16;100047.31;;;3.98;100.00
53619;BME280;39505;53.040;18.488;2023-03-15T01:08:29;100049.13;;;3.98;100.00
53619;BME280;39505;53.040;18.488;2023-03-15T01:08:43;100044.03;;;4.07;100.00
53619;BME280;39505;53.040;18.488;2023-03-15T01:08:56;100042.88;;;4.12;100.00
53619;BME280;39505;53.040;18.488;2023-03-15T01:09:09;100041.06;;;4.12;100.00
53619;BME280;39505;53.040;18.488;2023-03-15T01:09:22;100039.13;;;4.14;100.00
53619;BME280;39505;53.040;18.488;2023-03-15T01:09:35;100035.75;;;4.12;100.00
53619;BME280;39505;53.040;18.488;2023-03-15T01:09:47;100038.59;;;4.09;100.00
53619;BME280;39505;53.040;18.488;2023-03-15T01:10:00;100042.22;;;4.08;100.00
53619;BME280;39505;53.040;18.488;2023-03-15T01:10:14;100036.50;;;4.14;100.00